Time,TemperatureF,DewpointF,PressureIn,WindDirection,WindDirectionDegrees,WindSpeedMPH,WindSpeedGustMPH,Humidity,HourlyPrecipIn,Conditions,Clouds,dailyrainin,SoftwareType,DateUTC
2013-04-24 00:03:00,59.0,41.0,-100.00,South,190,0.0,12.0,55,0.00,,,-99.99,,2013-04-24 04:03:00,
2013-04-24 00:12:00,58.0,43.0,-100.00,NE,56,0.0,12.0,58,0.00,,,-99.99,,2013-04-24 04:12:00,
2013-04-24 00:23:00,59.0,45.0,-100.00,WNW,296,0.0,12.0,59,0.00,,,-99.99,,2013-04-24 04:23:00,
2013-04-24 00:33:00,60.0,43.0,-100.00,NNE,15,0.0,12.0,54,0.00,,,-99.99,,2013-04-24 04:33:00,
2013-04-24 00:43:00,60.0,45.0,-100.00,NNW,347,0.0,12.0,59,0.00,,,-99.99,,2013-04-24 04:43:00,
2013-04-24 00:52:00,59.0,39.0,-100.00,WSW,241,0.0,12.0,50,0.00,,,-99.99,,2013-04-24 04:52:00,
2013-04-24 01:02:00,61.0,41.0,-100.00,West,273,0.0,12.0,50,0.00,,,-99.99,,2013-04-24 05:02:00,
2013-04-24 01:13:00,60.0,43.0,-100.00,NNE,22,0.0,12.0,54,0.00,,,-99.99,,2013-04-24 05:13:00,
2013-04-24 01:22:00,60.0,41.0,-100.00,SW,227,0.0,12.0,53,0.00,,,-99.99,,2013-04-24 05:22:00,
2013-04-24 01:32:00,61.0,43.0,-100.00,North,352,0.0,12.0,53,0.00,,,-99.99,,2013-04-24 05:32:00,
2013-04-24 01:42:00,61.0,43.0,-100.00,NNW,336,0.0,12.0,53,0.00,,,-99.99,,2013-04-24 05:42:00,
2013-04-24 01:52:00,60.0,41.0,-100.00,SW,221,0.0,12.0,51,0.00,,,-99.99,,2013-04-24 05:52:00,
2013-04-24 02:02:00,59.0,41.0,-100.00,East,96,0.0,12.0,53,0.00,,,-99.99,,2013-04-24 06:02:00,
2013-04-24 02:12:00,59.0,41.0,-100.00,East,96,0.0,12.0,53,0.00,,,-99.99,,2013-04-24 06:12:00,
2013-04-24 02:22:00,59.0,41.0,-100.00,East,96,0.0,12.0,53,0.00,,,-99.99,,2013-04-24 06:22:00,
2013-04-24 02:33:00,59.0,41.0,-100.00,East,96,0.0,12.0,53,0.00,,,-99.99,,2013-04-24 06:33:00,
2013-04-24 03:42:00,62.0,46.0,-100.00,NNW,336,0.0,12.0,59,0.00,,,-99.99,,2013-04-24 07:42:00,
2013-04-24 03:52:00,60.0,45.0,-100.00,WSW,237,0.0,12.0,58,0.00,,,-99.99,,2013-04-24 07:52:00,
2013-04-24 04:02:00,60.0,41.0,-100.00,SW,221,0.0,12.0,53,0.00,,,-99.99,,2013-04-24 08:02:00,
2013-04-24 04:12:00,59.0,43.0,-100.00,SW,232,0.0,12.0,56,0.00,,,-99.99,,2013-04-24 08:12:00,
2013-04-24 04:21:00,60.0,46.0,-100.00,WSW,241,1.0,12.0,62,4.53,,,-99.99,,2013-04-24 08:21:00,
2013-04-24 04:33:00,60.0,46.0,-100.00,WSW,244,0.0,12.0,64,0.55,,,-99.99,,2013-04-24 08:33:00,
2013-04-24 04:42:00,59.0,48.0,-100.00,West,259,0.0,12.0,71,2.28,,,-99.99,,2013-04-24 08:42:00,
2013-04-24 04:52:00,58.0,50.0,-100.00,SE,132,0.0,12.0,75,0.00,,,-99.99,,2013-04-24 08:52:00,
2013-04-24 05:02:00,58.0,50.0,-100.00,WSW,240,0.0,12.0,78,13.03,,,-99.99,,2013-04-24 09:02:00,
2013-04-24 05:11:00,55.0,50.0,-100.00,ESE,103,1.0,12.0,85,1.14,,,-99.99,,2013-04-24 09:11:00,
2013-04-24 05:21:00,55.0,50.0,-100.00,SSE,156,1.0,12.0,88,0.55,,,-99.99,,2013-04-24 09:21:00,
2013-04-24 05:33:00,55.0,50.0,-100.00,NE,42,1.0,12.0,89,7.95,,,-99.99,,2013-04-24 09:33:00,
2013-04-24 05:42:00,55.0,52.0,-100.00,SSW,213,1.0,12.0,93,3.98,,,-99.99,,2013-04-24 09:42:00,
2013-04-24 05:53:00,55.0,52.0,-100.00,SW,231,0.0,12.0,94,5.12,,,-99.99,,2013-04-24 09:53:00,
2013-04-24 06:02:00,55.0,52.0,-100.00,SW,227,0.0,12.0,94,30.63,,,-99.99,,2013-04-24 10:02:00,
2013-04-24 06:12:00,54.0,52.0,-100.00,ENE,66,0.0,12.0,94,20.39,,,-99.99,,2013-04-24 10:12:00,
2013-04-24 06:23:00,54.0,52.0,-100.00,ENE,57,1.0,12.0,94,0.00,,,-99.99,,2013-04-24 10:23:00,
2013-04-24 06:33:00,53.0,50.0,-100.00,NNW,343,1.0,12.0,94,1.69,,,-99.99,,2013-04-24 10:33:00,
2013-04-24 06:42:00,54.0,52.0,-100.00,SE,132,0.0,12.0,94,0.00,,,-99.99,,2013-04-24 10:42:00,
2013-04-24 06:52:00,54.0,52.0,-100.00,NNE,16,0.0,12.0,95,0.00,,,-99.99,,2013-04-24 10:52:00,
2013-04-24 07:02:00,55.0,52.0,-100.00,SW,217,0.0,12.0,95,0.00,,,-99.99,,2013-04-24 11:02:00,
2013-04-24 07:12:00,55.0,52.0,-100.00,WSW,247,0.0,12.0,95,1.69,,,-99.99,,2013-04-24 11:12:00,
2013-04-24 07:22:00,55.0,52.0,-100.00,SE,124,0.0,0.0,95,10.20,,,-99.99,,2013-04-24 11:22:00,
2013-04-24 07:32:00,54.0,52.0,-100.00,WSW,251,0.0,0.0,94,0.00,,,-99.99,,2013-04-24 11:32:00,
2013-04-24 07:42:00,55.0,52.0,-100.00,WNW,292,0.0,0.0,95,0.00,,,-99.99,,2013-04-24 11:42:00,
2013-04-24 07:52:00,53.0,50.0,-100.00,South,190,0.0,0.0,94,0.00,,,-99.99,,2013-04-24 11:52:00,
2013-04-24 08:02:00,56.0,54.0,-100.00,WSW,254,0.0,0.0,95,0.00,,,-99.99,,2013-04-24 12:02:00,
2013-04-24 08:12:00,55.0,54.0,-100.00,WSW,256,0.0,0.0,95,0.00,,,-99.99,,2013-04-24 12:12:00,
2013-04-24 08:22:00,56.0,54.0,-100.00,North,11,0.0,0.0,94,13.03,,,-99.99,,2013-04-24 12:22:00,
2013-04-24 08:32:00,54.0,52.0,-100.00,NW,320,0.0,0.0,94,1.14,,,-99.99,,2013-04-24 12:32:00,
2013-04-24 08:42:00,54.0,52.0,-100.00,WNW,299,1.0,1.0,94,0.00,,,-99.99,,2013-04-24 12:42:00,
2013-04-24 08:52:00,55.0,52.0,-100.00,East,93,0.0,1.0,93,0.00,,,-99.99,,2013-04-24 12:52:00,
2013-04-24 09:01:00,56.0,54.0,-100.00,East,96,0.0,1.0,94,0.00,,,-99.99,,2013-04-24 13:01:00,
2013-04-24 09:12:00,56.0,54.0,-100.00,SE,138,0.0,1.0,94,0.00,,,-99.99,,2013-04-24 13:12:00,
2013-04-24 09:22:00,57.0,54.0,-100.00,NNW,337,0.0,1.0,94,0.55,,,-99.99,,2013-04-24 13:22:00,
2013-04-24 09:32:00,57.0,54.0,-100.00,WNW,292,0.0,1.0,93,0.00,,,-99.99,,2013-04-24 13:32:00,
2013-04-24 09:41:00,57.0,54.0,-100.00,South,182,0.0,1.0,93,0.00,,,-99.99,,2013-04-24 13:41:00,
2013-04-24 09:52:00,57.0,54.0,-100.00,WNW,293,0.0,1.0,93,0.00,,,-99.99,,2013-04-24 13:52:00,
2013-04-24 10:01:00,59.0,55.0,-100.00,WSW,252,1.0,1.0,91,0.00,,,-99.99,,2013-04-24 14:01:00,
2013-04-24 10:11:00,60.0,57.0,-100.00,North,7,0.0,1.0,91,0.00,,,-99.99,,2013-04-24 14:11:00,
2013-04-24 10:22:00,61.0,57.0,-100.00,NE,43,0.0,1.0,90,0.00,,,-99.99,,2013-04-24 14:22:00,
2013-04-24 10:32:00,61.0,57.0,-100.00,SW,230,0.0,1.0,89,0.00,,,-99.99,,2013-04-24 14:32:00,
2013-04-24 10:42:00,61.0,57.0,-100.00,WNW,292,1.0,1.0,88,0.00,,,-99.99,,2013-04-24 14:42:00,
2013-04-24 10:51:00,62.0,55.0,-100.00,SSW,207,1.0,1.0,82,0.00,,,-99.99,,2013-04-24 14:51:00,
2013-04-24 11:01:00,61.0,52.0,-100.00,West,279,2.0,4.0,77,10.20,,,-99.99,,2013-04-24 15:01:00,
2013-04-24 11:11:00,61.0,52.0,-100.00,West,265,4.0,8.0,75,15.31,,,-99.99,,2013-04-24 15:11:00,
2013-04-24 11:22:00,60.0,55.0,-100.00,SW,216,5.0,8.0,86,1.69,,,-99.99,,2013-04-24 15:22:00,
2013-04-24 11:33:00,59.0,54.0,-100.00,SSE,163,2.0,8.0,88,0.55,,,-99.99,,2013-04-24 15:33:00,
2013-04-24 11:43:00,58.0,55.0,-100.00,SW,223,1.0,8.0,90,0.00,,,-99.99,,2013-04-24 15:43:00,
2013-04-24 11:53:00,58.0,55.0,-100.00,SE,144,2.0,8.0,90,0.00,,,-99.99,,2013-04-24 15:53:00,
2013-04-24 12:03:00,60.0,55.0,-100.00,WSW,258,4.0,8.0,89,0.00,,,-99.99,,2013-04-24 16:03:00,
2013-04-24 12:12:00,59.0,54.0,-100.00,WSW,258,7.0,10.0,86,6.22,,,-99.99,,2013-04-24 16:12:00,
2013-04-24 12:23:00,60.0,55.0,-100.00,NW,313,5.0,10.0,86,0.00,,,-99.99,,2013-04-24 16:23:00,
2013-04-24 12:32:00,58.0,54.0,-100.00,WSW,255,2.0,10.0,90,1.14,,,-99.99,,2013-04-24 16:32:00,
2013-04-24 12:42:00,61.0,57.0,-100.00,West,268,2.0,10.0,90,23.23,,,-99.99,,2013-04-24 16:42:00,
2013-04-24 12:52:00,60.0,55.0,-100.00,West,261,5.0,10.0,91,6.22,,,-99.99,,2013-04-24 16:52:00,
2013-04-24 13:02:00,60.0,57.0,-100.00,WNW,288,6.0,10.0,91,3.39,,,-99.99,,2013-04-24 17:02:00,
2013-04-24 13:12:00,61.0,57.0,-100.00,WSW,254,6.0,10.0,91,0.00,,,-99.99,,2013-04-24 17:12:00,
2013-04-24 13:22:00,60.0,57.0,-100.00,West,268,8.0,10.0,93,0.55,,,-99.99,,2013-04-24 17:22:00,
2013-04-24 13:32:00,60.0,57.0,-100.00,SW,214,9.0,12.0,91,10.20,,,-99.99,,2013-04-24 17:32:00,
2013-04-24 13:42:00,60.0,57.0,-100.00,SSW,210,8.0,12.0,93,5.12,,,-99.99,,2013-04-24 17:42:00,
2013-04-24 13:51:00,59.0,55.0,-100.00,SSW,207,7.0,12.0,93,10.20,,,-99.99,,2013-04-24 17:51:00,
2013-04-24 14:02:00,58.0,55.0,-100.00,SW,234,6.0,12.0,91,-99.99,,,-99.99,,2013-04-24 18:02:00,
2013-04-24 14:12:00,59.0,55.0,-100.00,WSW,251,6.0,12.0,94,7.95,,,-99.99,,2013-04-24 18:12:00,
2013-04-24 14:22:00,57.0,54.0,-100.00,WSW,242,7.0,12.0,94,2.83,,,-99.99,,2013-04-24 18:22:00,
2013-04-24 14:33:00,59.0,57.0,-100.00,SW,216,7.0,12.0,95,3.39,,,-99.99,,2013-04-24 18:33:00,
2013-04-24 14:42:00,58.0,55.0,-100.00,SW,225,7.0,12.0,93,1.69,,,-99.99,,2013-04-24 18:42:00,
2013-04-24 14:52:00,58.0,55.0,-100.00,WSW,248,6.0,12.0,91,0.00,,,-99.99,,2013-04-24 18:52:00,
2013-04-24 15:02:00,60.0,57.0,-100.00,West,272,5.0,12.0,93,1.14,,,-99.99,,2013-04-24 19:02:00,
2013-04-24 15:12:00,60.0,57.0,-100.00,WSW,258,5.0,12.0,93,0.55,,,-99.99,,2013-04-24 19:12:00,
2013-04-24 15:22:00,60.0,57.0,-100.00,West,259,7.0,12.0,94,0.00,,,-99.99,,2013-04-24 19:22:00,
2013-04-24 15:32:00,61.0,57.0,-100.00,SW,231,4.0,12.0,93,0.00,,,-99.99,,2013-04-24 19:32:00,
2013-04-24 15:42:00,61.0,57.0,-100.00,SW,220,3.0,12.0,93,0.00,,,-99.99,,2013-04-24 19:42:00,
2013-04-24 15:52:00,59.0,55.0,-100.00,West,261,6.0,12.0,91,12.48,,,-99.99,,2013-04-24 19:52:00,
2013-04-24 16:02:00,59.0,55.0,-100.00,SW,234,9.0,14.0,91,14.17,,,-99.99,,2013-04-24 20:02:00,
2013-04-24 16:11:00,48.0,45.0,-100.00,SW,217,7.0,14.0,93,14.17,,,-99.99,,2013-04-24 20:11:00,
2013-04-24 16:22:00,46.0,43.0,-100.00,WSW,249,6.0,14.0,94,17.01,,,-99.99,,2013-04-24 20:22:00,
2013-04-24 16:32:00,45.0,43.0,-100.00,SSW,213,4.0,14.0,94,1.69,,,-99.99,,2013-04-24 20:32:00,
2013-04-24 16:42:00,44.0,41.0,-100.00,West,279,4.0,14.0,95,3.39,,,-99.99,,2013-04-24 20:42:00,
2013-04-24 16:52:00,44.0,43.0,-100.00,West,275,5.0,14.0,95,7.36,,,-99.99,,2013-04-24 20:52:00,
2013-04-24 17:02:00,45.0,43.0,-100.00,SSW,203,7.0,14.0,94,7.95,,,-99.99,,2013-04-24 21:02:00,
2013-04-24 17:12:00,46.0,43.0,-100.00,SW,221,4.0,14.0,94,13.03,,,-99.99,,2013-04-24 21:12:00,
2013-04-24 17:22:00,42.0,39.0,-100.00,SW,216,7.0,14.0,94,2.83,,,-99.99,,2013-04-24 21:22:00,
2013-04-24 17:33:00,46.0,43.0,-100.00,SSW,210,8.0,14.0,94,1.69,,,-99.99,,2013-04-24 21:33:00,
2013-04-24 17:42:00,42.0,39.0,-100.00,SW,225,6.0,14.0,93,5.12,,,-99.99,,2013-04-24 21:42:00,
2013-04-24 17:52:00,44.0,41.0,-100.00,WSW,240,7.0,14.0,91,11.89,,,-99.99,,2013-04-24 21:52:00,
2013-04-24 18:03:00,44.0,41.0,-100.00,SW,228,9.0,14.0,90,3.98,,,-99.99,,2013-04-24 22:03:00,
2013-04-24 18:12:00,42.0,37.0,-100.00,SSW,201,8.0,14.0,90,0.00,,,-99.99,,2013-04-24 22:12:00,
2013-04-24 18:22:00,42.0,37.0,-100.00,SSW,199,8.0,14.0,89,0.00,,,-99.99,,2013-04-24 22:22:00,
2013-04-24 18:33:00,42.0,37.0,-100.00,South,190,7.0,14.0,89,0.00,,,-99.99,,2013-04-24 22:33:00,
2013-04-24 18:42:00,42.0,37.0,-100.00,WSW,247,7.0,14.0,89,0.00,,,-99.99,,2013-04-24 22:42:00,
2013-04-24 18:52:00,41.0,37.0,-100.00,SW,214,7.0,14.0,88,0.00,,,-99.99,,2013-04-24 22:52:00,
2013-04-24 19:02:00,41.0,37.0,-100.00,SSW,207,8.0,14.0,88,0.00,,,-99.99,,2013-04-24 23:02:00,
2013-04-24 19:12:00,42.0,37.0,-100.00,SW,225,9.0,14.0,88,0.00,,,-99.99,,2013-04-24 23:12:00,
2013-04-24 19:22:00,43.0,39.0,-100.00,WSW,238,9.0,14.0,88,0.00,,,-99.99,,2013-04-24 23:22:00,
2013-04-24 19:32:00,43.0,39.0,-100.00,WSW,242,7.0,14.0,88,0.00,,,-99.99,,2013-04-24 23:32:00,
2013-04-24 19:42:00,41.0,36.0,-100.00,West,259,7.0,14.0,86,0.00,,,-99.99,,2013-04-24 23:42:00,
2013-04-24 19:52:00,42.0,37.0,-100.00,SW,224,7.0,14.0,88,0.00,,,-99.99,,2013-04-24 23:52:00,
2013-04-24 20:02:00,42.0,37.0,-100.00,SW,225,6.0,14.0,86,0.00,,,-99.99,,2013-04-25 00:02:00,
2013-04-24 20:12:00,40.0,36.0,-100.00,SW,225,6.0,14.0,85,0.00,,,-99.99,,2013-04-25 00:12:00,
2013-04-24 20:23:00,43.0,37.0,-100.00,NNW,341,5.0,14.0,85,0.00,,,-99.99,,2013-04-25 00:23:00,
2013-04-24 20:32:00,40.0,34.0,-100.00,SW,218,6.0,14.0,84,0.00,,,-99.99,,2013-04-25 00:32:00,
2013-04-24 20:42:00,42.0,37.0,-100.00,SW,220,4.0,14.0,85,0.00,,,-99.99,,2013-04-25 00:42:00,
2013-04-24 20:52:00,41.0,36.0,-100.00,SSW,208,3.0,14.0,86,0.00,,,-99.99,,2013-04-25 00:52:00,
2013-04-24 21:02:00,40.0,36.0,-100.00,WSW,245,3.0,14.0,85,0.00,,,-99.99,,2013-04-25 01:02:00,
2013-04-24 21:11:00,42.0,37.0,-100.00,SW,227,6.0,14.0,85,0.00,,,-99.99,,2013-04-25 01:11:00,
2013-04-24 21:23:00,43.0,37.0,-100.00,SW,220,6.0,14.0,85,0.00,,,-99.99,,2013-04-25 01:23:00,
2013-04-24 21:32:00,42.0,37.0,-100.00,WSW,241,7.0,14.0,85,0.00,,,-99.99,,2013-04-25 01:32:00,
2013-04-24 21:42:00,40.0,36.0,-100.00,West,259,6.0,14.0,85,0.00,,,-99.99,,2013-04-25 01:42:00,
2013-04-24 21:52:00,41.0,37.0,-100.00,SSW,206,5.0,14.0,88,0.00,,,-99.99,,2013-04-25 01:52:00,
2013-04-24 22:02:00,41.0,37.0,-100.00,WSW,238,5.0,14.0,88,0.00,,,-99.99,,2013-04-25 02:02:00,
2013-04-24 22:11:00,43.0,39.0,-100.00,West,262,4.0,14.0,88,0.00,,,-99.99,,2013-04-25 02:11:00,
2013-04-24 22:22:00,41.0,37.0,-100.00,WSW,245,4.0,14.0,88,0.00,,,-99.99,,2013-04-25 02:22:00,
2013-04-24 22:32:00,41.0,37.0,-100.00,SW,223,4.0,14.0,88,0.00,,,-99.99,,2013-04-25 02:32:00,
2013-04-24 22:42:00,41.0,37.0,-100.00,SW,223,4.0,14.0,88,0.00,,,-99.99,,2013-04-25 02:42:00,
2013-04-24 22:51:00,41.0,37.0,-100.00,SW,223,4.0,14.0,88,0.00,,,-99.99,,2013-04-25 02:51:00,
2013-04-24 23:02:00,41.0,36.0,-100.00,WSW,242,2.0,14.0,86,0.00,,,-99.99,,2013-04-25 03:02:00,
2013-04-24 23:11:00,42.0,37.0,-100.00,SW,232,3.0,14.0,85,0.00,,,-99.99,,2013-04-25 03:11:00,
2013-04-24 23:22:00,40.0,34.0,-100.00,SW,232,3.0,14.0,84,0.00,,,-99.99,,2013-04-25 03:22:00,
2013-04-24 23:33:00,40.0,34.0,-100.00,WSW,240,4.0,14.0,84,0.00,,,-99.99,,2013-04-25 03:33:00,
2013-04-24 23:43:00,40.0,34.0,-100.00,SW,217,3.0,14.0,84,0.00,,,-99.99,,2013-04-25 03:43:00,
2013-04-24 23:52:00,40.0,36.0,-100.00,SW,227,1.0,14.0,86,0.00,,,-99.99,,2013-04-25 03:52:00,